Time;durP1;ratioP1;P1;durP2;ratioP2;P2;SDS_P1;SDS_P2;PMS_P1;PMS_P2;Temp;Humidity;BMP_temperature;BMP_pressure;BME280_temperature;BME280_humidity;BME280_pressure;Samples;Min_cycle;Max_cycle;Signal;HPM_P1;HPM_P2
2021/03/02 00:00:18;;;;;;;;;;;;;;;3.90;65.55;101554.30;1801833;79;20137;-58
2021/03/02 00:02:46;;;;;;;;;;;;;;;3.88;65.59;101545.16;1674381;85;20300;-59
2021/03/02 00:05:15;;;;;;;;;;;;;;;3.86;65.67;101547.14;1645780;86;20295;-59
2021/03/02 00:07:43;;;;;;;;;;;;;;;3.86;65.70;101547.96;1647570;86;21390;-59
2021/03/02 00:10:12;;;;;;;;;;;;;;;3.85;65.73;101544.12;1645411;86;20214;-59
2021/03/02 00:12:41;;;;;;;;;;;;;;;3.86;65.70;101543.98;1646884;86;20173;-60
2021/03/02 00:15:11;;;;;;;;;;;;;;;3.85;65.88;101538.82;1644548;86;20277;-59
2021/03/02 00:17:51;;;;;;;;;;;;;;;3.87;65.95;101543.48;1645558;86;20246;-60
2021/03/02 00:20:23;;;;;;;;;;;;;;;3.89;65.87;101539.36;1671036;82;21216;-58
2021/03/02 00:23:10;;;;;;;;;;;;;;;3.91;65.79;101533.43;1749909;82;20161;-59
2021/03/02 00:25:43;;;;;;;;;;;;;;;3.90;65.72;101528.63;1637359;85;20612;-58
2021/03/02 00:28:11;;;;;;;;;;;;;;;3.80;65.69;101520.69;1641656;85;20244;-59
2021/03/02 00:30:39;;;;;;;;;;;;;;;3.71;65.88;101524.70;1641774;85;20323;-59
2021/03/02 00:33:08;;;;;;;;;;;;;;;3.69;66.04;101522.19;1640872;85;21220;-60
2021/03/02 00:35:36;;;;;;;;;;;;;;;3.72;66.06;101525.05;1618284;86;20266;-58
2021/03/02 00:38:04;;;;;;;;;;;;;;;3.74;66.08;101523.08;1639900;85;20310;-58
2021/03/02 00:40:33;;;;;;;;;;;;;;;3.75;66.09;101514.15;1637770;85;20249;-58
2021/03/02 00:43:00;;;;;;;;;;;;;;;3.77;66.07;101511.70;1639637;85;20261;-58
2021/03/02 00:45:36;;;;;;;;;;;;;;;3.85;66.01;101507.81;1828388;77;21126;-58
2021/03/02 00:48:06;;;;;;;;;;;;;;;3.82;65.97;101507.28;1797206;79;20151;-59
2021/03/02 00:50:34;;;;;;;;;;;;;;;3.84;65.90;101500.00;1801503;79;21210;-58
2021/03/02 00:53:02;;;;;;;;;;;;;;;3.83;65.79;101500.50;1799315;79;20212;-59
2021/03/02 00:55:30;;;;;;;;;;;;;;;3.80;65.74;101496.81;1799584;79;20135;-59
2021/03/02 00:57:58;;;;;;;;;;;;;;;3.77;65.80;101493.13;1779888;79;20109;-58
2021/03/02 01:00:28;;;;;;;;;;;;;;;3.75;65.81;101483.14;1802697;79;20137;-58
2021/03/02 01:02:58;;;;;;;;;;;;;;;3.76;65.91;101482.17;1801802;79;21302;-59
2021/03/02 01:05:26;;;;;;;;;;;;;;;3.78;65.91;101488.15;1673750;85;20154;-58
2021/03/02 01:07:54;;;;;;;;;;;;;;;3.81;65.83;101480.41;1677990;83;20206;-59
2021/03/02 01:10:24;;;;;;;;;;;;;;;3.80;65.81;101472.94;1672697;85;20223;-59
2021/03/02 01:12:54;;;;;;;;;;;;;;;3.82;65.71;101465.66;1674717;83;20245;-61
2021/03/02 01:15:22;;;;;;;;;;;;;;;3.80;65.72;101470.29;1674385;85;21212;-59
2021/03/02 01:17:50;;;;;;;;;;;;;;;3.80;65.70;101464.98;1672851;85;20249;-60
2021/03/02 01:20:18;;;;;;;;;;;;;;;3.82;65.71;101468.81;1672470;85;20523;-59
2021/03/02 01:22:46;;;;;;;;;;;;;;;3.80;65.68;101461.00;1673957;85;20253;-60
2021/03/02 01:25:15;;;;;;;;;;;;;;;3.80;65.64;101461.51;1673136;85;20351;-59
2021/03/02 01:27:43;;;;;;;;;;;;;;;3.80;65.70;101464.16;1661079;85;21213;-59
2021/03/02 01:30:12;;;;;;;;;;;;;;;3.80;65.80;101447.74;1725210;79;20226;-59
2021/03/02 01:32:40;;;;;;;;;;;;;;;3.83;65.76;101447.45;1800567;79;20504;-61
2021/03/02 01:35:11;;;;;;;;;;;;;;;3.86;65.70;101451.13;1672617;85;20237;-59
2021/03/02 01:37:39;;;;;;;;;;;;;;;3.88;65.57;101443.02;1675987;85;20277;-59
2021/03/02 01:40:15;;;;;;;;;;;;;;;3.83;65.52;101442.14;1673747;85;21210;-58
2021/03/02 01:42:43;;;;;;;;;;;;;;;3.85;65.51;101431.38;1673118;85;20361;-59
2021/03/02 01:45:13;;;;;;;;;;;;;;;3.86;65.43;101431.73;1664734;85;20428;-59
2021/03/02 01:47:42;;;;;;;;;;;;;;;3.86;65.40;101426.42;1663462;85;20577;-60
2021/03/02 01:50:12;;;;;;;;;;;;;;;3.84;65.35;101424.39;1662873;85;20905;-59
2021/03/02 01:52:40;;;;;;;;;;;;;;;3.79;65.26;101428.81;1694207;79;21215;-59
2021/03/02 01:55:08;;;;;;;;;;;;;;;3.71;65.38;101430.06;1788291;79;20182;-59
2021/03/02 01:57:36;;;;;;;;;;;;;;;3.68;65.42;101419.72;1786221;79;20501;-60
2021/03/02 02:00:27;;;;;;;;;;;;;;;3.69;65.45;101420.08;1787062;79;20209;-58
2021/03/02 02:03:21;;;;;;;;;;;;;;;3.71;65.38;101415.95;1788692;79;20278;-59
2021/03/02 02:06:05;;;;;;;;;;;;;;;3.74;65.31;101407.69;1789709;79;21322;-59
2021/03/02 02:08:54;;;;;;;;;;;;;;;3.76;65.27;101405.25;1696297;83;20150;-59
2021/03/02 02:11:52;;;;;;;;;;;;;;;3.80;65.13;101393.86;1695391;84;20272;-59
2021/03/02 02:14:30;;;;;;;;;;;;;;;3.81;64.94;101395.51;1699133;84;20231;-59
2021/03/02 02:17:02;;;;;;;;;;;;;;;3.80;64.94;101391.21;1696206;84;20311;-60
2021/03/02 02:19:51;;;;;;;;;;;;;;;3.80;64.90;101388.56;1692229;84;21219;-59
2021/03/02 02:22:49;;;;;;;;;;;;;;;3.84;64.85;101377.97;1823404;77;20279;-58
2021/03/02 02:25:30;;;;;;;;;;;;;;;3.78;64.80;101374.59;1797220;78;20471;-59
2021/03/02 02:27:58;;;;;;;;;;;;;;;3.77;64.76;101372.44;1797385;78;22127;-58
2021/03/02 02:30:29;;;;;;;;;;;;;;;3.75;64.77;101369.08;1792778;78;20145;-59
2021/03/02 02:32:58;;;;;;;;;;;;;;;3.71;64.76;101361.11;1797427;78;20147;-58
2021/03/02 02:35:26;;;;;;;;;;;;;;;3.70;64.84;101358.10;1796744;79;20494;-60
2021/03/02 02:37:54;;;;;;;;;;;;;;;3.68;64.84;101358.72;1796415;78;20159;-58
2021/03/02 02:40:22;;;;;;;;;;;;;;;3.68;64.85;101357.39;1793132;78;22141;-60
2021/03/02 02:42:51;;;;;;;;;;;;;;;3.68;64.84;101357.39;1793654;78;20525;-59
2021/03/02 02:45:20;;;;;;;;;;;;;;;3.68;64.88;101349.44;1793141;78;20536;-58
2021/03/02 02:47:48;;;;;;;;;;;;;;;3.68;64.87;101348.11;1799489;78;20501;-58
2021/03/02 02:50:17;;;;;;;;;;;;;;;3.66;64.92;101344.28;1670316;84;20242;-59
2021/03/02 02:52:47;;;;;;;;;;;;;;;3.66;64.95;101333.68;1668206;84;21224;-58
2021/03/02 02:55:14;;;;;;;;;;;;;;;3.69;64.91;101329.91;1668070;84;20168;-60
2021/03/02 02:57:44;;;;;;;;;;;;;;;3.71;64.86;101331.93;1660189;85;20153;-59
2021/03/02 03:00:13;;;;;;;;;;;;;;;3.73;64.75;101333.93;1670034;84;20178;-59
2021/03/02 03:02:43;;;;;;;;;;;;;;;3.70;64.74;101333.41;1670265;84;20554;-60
2021/03/02 03:05:14;;;;;;;;;;;;;;;3.68;64.76;101334.38;1668677;84;21225;-59
2021/03/02 03:07:46;;;;;;;;;;;;;;;3.66;64.73;101331.53;1692930;78;20223;-60
2021/03/02 03:10:15;;;;;;;;;;;;;;;3.65;64.72;101332.03;1793963;78;20212;-59
2021/03/02 03:12:44;;;;;;;;;;;;;;;3.64;64.76;101326.38;1797933;78;20233;-61
2021/03/02 03:15:13;;;;;;;;;;;;;;;3.66;64.74;101321.74;1799612;78;20129;-60
2021/03/02 03:17:43;;;;;;;;;;;;;;;3.67;64.60;101314.64;1797542;78;21327;-60
2021/03/02 03:20:12;;;;;;;;;;;;;;;3.65;64.62;101300.67;1797599;78;20144;-58
2021/03/02 03:22:39;;;;;;;;;;;;;;;3.66;64.63;101297.05;1786473;78;20205;-59
2021/03/02 03:25:08;;;;;;;;;;;;;;;3.64;64.54;101295.05;1785888;78;20175;-59
2021/03/02 03:27:39;;;;;;;;;;;;;;;3.61;64.51;101288.22;1785138;78;20130;-58
2021/03/02 03:30:09;;;;;;;;;;;;;;;3.58;64.56;101286.34;1788637;79;21285;-60
2021/03/02 03:32:38;;;;;;;;;;;;;;;3.56;64.62;101280.38;1781403;78;20126;-59
2021/03/02 03:35:07;;;;;;;;;;;;;;;3.54;64.67;101283.17;1762996;79;20237;-58
2021/03/02 03:37:35;;;;;;;;;;;;;;;3.53;64.70;101282.00;1786281;78;20150;-59
2021/03/02 03:40:05;;;;;;;;;;;;;;;3.53;64.73;101275.38;1786026;78;20219;-59
2021/03/02 03:42:32;;;;;;;;;;;;;;;3.52;64.75;101274.55;1783191;78;21197;-58
2021/03/02 03:45:03;;;;;;;;;;;;;;;3.54;64.69;101274.39;1786642;78;20223;-59
2021/03/02 03:47:30;;;;;;;;;;;;;;;3.53;64.79;101266.91;1786358;79;20270;-59
2021/03/02 03:49:59;;;;;;;;;;;;;;;3.58;64.79;101265.98;1761332;78;20183;-59
2021/03/02 03:52:27;;;;;;;;;;;;;;;3.61;64.68;101256.41;1784134;78;20136;-58
2021/03/02 03:54:55;;;;;;;;;;;;;;;3.62;64.66;101256.75;1783874;78;22287;-60
2021/03/02 03:57:24;;;;;;;;;;;;;;;3.67;64.60;101249.16;1786552;78;20634;-58
2021/03/02 03:59:52;;;;;;;;;;;;;;;3.71;64.41;101237.78;1784970;78;20130;-58
2021/03/02 04:02:20;;;;;;;;;;;;;;;3.72;64.25;101234.12;1785747;78;20228;-59
2021/03/02 04:04:48;;;;;;;;;;;;;;;3.72;64.15;101229.31;1785785;78;20272;-59
2021/03/02 04:07:16;;;;;;;;;;;;;;;3.69;64.05;101229.12;1761317;79;22133;-60
2021/03/02 04:09:44;;;;;;;;;;;;;;;3.65;64.13;101219.32;1782609;78;20224;-60
2021/03/02 04:12:12;;;;;;;;;;;;;;;3.66;64.17;101210.86;1787395;78;20140;-62
2021/03/02 04:14:42;;;;;;;;;;;;;;;3.66;64.07;101214.33;1785622;78;20235;-60
2021/03/02 04:17:10;;;;;;;;;;;;;;;3.66;64.00;101205.56;1784931;78;20162;-59
2021/03/02 04:19:39;;;;;;;;;;;;;;;3.64;63.96;101201.73;1785857;78;21212;-58
2021/03/02 04:22:07;;;;;;;;;;;;;;;3.59;63.86;101201.38;1789630;78;20314;-58
2021/03/02 04:24:35;;;;;;;;;;;;;;;3.51;63.91;101199.45;1785073;78;20294;-60
2021/03/02 04:27:03;;;;;;;;;;;;;;;3.46;63.95;101198.23;1783147;79;20615;-60
2021/03/02 04:29:31;;;;;;;;;;;;;;;3.40;64.00;101190.42;1784665;78;20477;-60
2021/03/02 04:31:59;;;;;;;;;;;;;;;3.34;64.06;101193.65;1784887;79;21361;-59
2021/03/02 04:34:27;;;;;;;;;;;;;;;3.26;64.20;101189.61;1786699;78;20180;-59
2021/03/02 04:36:55;;;;;;;;;;;;;;;3.21;64.34;101188.73;1785152;78;20241;-59
2021/03/02 04:39:23;;;;;;;;;;;;;;;3.17;64.33;101183.89;1781238;78;20161;-60
2021/03/02 04:41:51;;;;;;;;;;;;;;;3.11;64.49;101183.99;1785793;78;20157;-60
2021/03/02 04:44:21;;;;;;;;;;;;;;;3.08;64.60;101178.48;1785606;79;20239;-60
2021/03/02 04:46:48;;;;;;;;;;;;;;;3.09;64.56;101182.81;1782530;78;20566;-62
2021/03/02 04:49:17;;;;;;;;;;;;;;;3.12;64.55;101178.55;1784889;78;20136;-60
2021/03/02 04:51:44;;;;;;;;;;;;;;;3.15;64.38;101174.73;1781239;79;20220;-60
2021/03/02 04:54:12;;;;;;;;;;;;;;;3.12;64.32;101177.22;1786488;79;20232;-58
2021/03/02 04:56:40;;;;;;;;;;;;;;;3.11;64.27;101171.56;1784508;79;21934;-60
2021/03/02 04:59:08;;;;;;;;;;;;;;;3.13;64.26;101170.09;1783308;79;20207;-60
2021/03/02 05:01:36;;;;;;;;;;;;;;;3.20;64.24;101167.69;1736961;79;20292;-59
2021/03/02 05:04:05;;;;;;;;;;;;;;;3.29;64.07;101168.92;1784135;79;20225;-59
2021/03/02 05:06:33;;;;;;;;;;;;;;;3.38;63.86;101169.84;1784468;79;20544;-60
2021/03/02 05:09:01;;;;;;;;;;;;;;;3.44;63.73;101164.42;1789422;79;21197;-61
2021/03/02 05:11:29;;;;;;;;;;;;;;;3.49;63.51;101157.69;1784764;79;20157;-59
2021/03/02 05:13:58;;;;;;;;;;;;;;;3.52;63.45;101153.91;1762372;79;20272;-58
2021/03/02 05:16:26;;;;;;;;;;;;;;;3.54;63.30;101149.78;1785280;79;21083;-64
2021/03/02 05:18:55;;;;;;;;;;;;;;;3.56;63.24;101148.62;1784033;79;20217;-60
2021/03/02 05:21:22;;;;;;;;;;;;;;;3.67;63.15;101139.61;1777094;79;21254;-62
2021/03/02 05:23:51;;;;;;;;;;;;;;;4.25;62.85;101141.31;1739597;81;20272;-60
2021/03/02 05:26:22;;;;;;;;;;;;;;;5.41;61.34;101139.34;1739982;80;20209;-60
2021/03/02 05:28:50;;;;;;;;;;;;;;;6.79;58.67;101126.43;1740280;81;20241;-60
2021/03/02 05:31:19;;;;;;;;;;;;;;;7.98;55.24;101114.84;1739119;81;20218;-59
2021/03/02 05:33:47;;;;;;;;;;;;;;;8.88;52.09;101122.83;1737140;81;21394;-60
2021/03/02 05:36:15;;;;;;;;;;;;;;;9.58;49.90;101118.55;1741239;81;20231;-59
2021/03/02 05:38:43;;;;;;;;;;;;;;;10.32;48.18;101119.91;1739282;80;20314;-60
2021/03/02 05:41:12;;;;;;;;;;;;;;;11.12;45.74;101114.55;1748944;80;20505;-61
2021/03/02 05:43:43;;;;;;;;;;;;;;;11.83;44.38;101115.83;1739955;80;20512;-61
2021/03/02 05:46:13;;;;;;;;;;;;;;;12.60;42.80;101106.66;1737268;81;21150;-60
2021/03/02 05:48:41;;;;;;;;;;;;;;;13.38;40.75;101100.22;1737166;81;20132;-60
2021/03/02 05:51:10;;;;;;;;;;;;;;;14.07;39.02;101089.98;1741465;81;20158;-59
2021/03/02 05:53:38;;;;;;;;;;;;;;;14.76;37.58;101095.20;1740317;81;20191;-61
2021/03/02 05:56:07;;;;;;;;;;;;;;;15.37;36.34;101093.26;1740067;81;20596;-60
2021/03/02 05:58:35;;;;;;;;;;;;;;;15.89;35.40;101095.34;1738562;81;21198;-59
2021/03/02 06:01:03;;;;;;;;;;;;;;;16.50;34.31;101090.94;1742321;81;20277;-60
2021/03/02 06:03:38;;;;;;;;;;;;;;;17.06;33.43;101077.66;1740713;81;20292;-59
2021/03/02 06:06:06;;;;;;;;;;;;;;;17.53;32.37;101080.06;1741339;81;20501;-58
2021/03/02 06:08:34;;;;;;;;;;;;;;;18.06;31.56;101081.94;1740766;81;20491;-59
2021/03/02 06:11:27;;;;;;;;;;;;;;;18.45;31.00;101087.33;1742341;81;20226;-59
2021/03/02 06:13:56;;;;;;;;;;;;;;;18.48;30.60;101084.65;1741293;81;20170;-58
2021/03/02 06:16:24;;;;;;;;;;;;;;;17.86;31.01;101084.63;1741161;81;20130;-62
2021/03/02 06:18:53;;;;;;;;;;;;;;;17.29;31.38;101080.77;1745559;81;20132;-63
2021/03/02 06:21:21;;;;;;;;;;;;;;;16.75;32.33;101086.01;1742362;80;20160;-61
2021/03/02 06:23:52;;;;;;;;;;;;;;;16.34;32.25;101079.82;1785970;79;21320;-62
2021/03/02 06:26:25;;;;;;;;;;;;;;;15.92;32.93;101094.33;1785640;79;20262;-62
2021/03/02 06:28:55;;;;;;;;;;;;;;;15.26;33.71;101088.14;1784236;79;20110;-65
2021/03/02 06:31:31;;;;;;;;;;;;;;;14.41;35.23;101099.33;1785550;79;20279;-67
2021/03/02 06:34:16;;;;;;;;;;;;;;;13.82;36.29;101104.31;1786349;79;20215;-64
2021/03/02 06:36:57;;;;;;;;;;;;;;;13.15;37.23;101102.13;1785062;78;21153;-69
2021/03/02 06:39:39;;;;;;;;;;;;;;;12.07;38.98;101096.89;1707219;83;20291;-70
2021/03/02 06:42:18;;;;;;;;;;;;;;;10.80;41.19;101104.87;1821398;77;20235;-69
2021/03/02 06:44:52;;;;;;;;;;;;;;;9.92;43.17;101110.78;1799971;78;20131;-68
2021/03/02 06:47:32;;;;;;;;;;;;;;;9.11;45.09;101109.27;1772314;79;21200;-69
2021/03/02 06:50:03;;;;;;;;;;;;;;;8.15;47.39;101099.46;1796032;79;20216;-69
2021/03/02 06:52:37;;;;;;;;;;;;;;;7.25;49.18;101095.80;1800943;79;20263;-69
2021/03/02 06:55:18;;;;;;;;;;;;;;;6.62;50.92;101098.51;1806147;79;20241;-69
2021/03/02 06:57:46;;;;;;;;;;;;;;;6.13;52.07;101100.05;1806358;79;20254;-70
2021/03/02 07:00:15;;;;;;;;;;;;;;;5.78;53.77;101102.08;1775076;79;21220;-69
2021/03/02 07:02:44;;;;;;;;;;;;;;;5.48;54.85;101111.09;1802229;79;20167;-69
2021/03/02 07:05:17;;;;;;;;;;;;;;;5.24;55.74;101110.56;1793846;79;20845;-69
2021/03/02 07:07:54;;;;;;;;;;;;;;;5.02;56.62;101110.70;1799704;78;20200;-69
2021/03/02 07:10:18;;;;;;;;;;;;;;;4.86;57.40;101104.87;1799321;79;20218;-69
2021/03/02 07:12:46;;;;;;;;;;;;;;;4.67;58.32;101110.80;1798182;79;21267;-68
2021/03/02 07:15:17;;;;;;;;;;;;;;;4.47;58.73;101101.42;1799274;79;20587;-69
2021/03/02 07:17:47;;;;;;;;;;;;;;;4.33;59.42;101101.03;1799739;79;20163;-67
2021/03/02 07:20:17;;;;;;;;;;;;;;;4.24;59.89;101094.51;1798805;79;20591;-69
2021/03/02 07:22:50;;;;;;;;;;;;;;;4.19;60.06;101087.84;1800584;78;20258;-69
2021/03/02 07:25:19;;;;;;;;;;;;;;;4.17;60.53;101089.02;1799421;79;21207;-68
2021/03/02 07:27:48;;;;;;;;;;;;;;;4.09;60.77;101091.63;1798197;79;20583;-68
2021/03/02 07:30:17;;;;;;;;;;;;;;;4.08;60.93;101086.82;1800119;79;20514;-70
2021/03/02 07:32:47;;;;;;;;;;;;;;;4.13;61.01;101091.65;1801762;79;20533;-68
2021/03/02 07:35:22;;;;;;;;;;;;;;;4.15;61.24;101083.02;1798580;79;20321;-69
2021/03/02 07:37:50;;;;;;;;;;;;;;;4.17;61.53;101090.34;1797750;78;21204;-69
2021/03/02 07:40:19;;;;;;;;;;;;;;;4.19;61.63;101092.34;1797326;79;20242;-68
2021/03/02 07:42:47;;;;;;;;;;;;;;;4.23;61.56;101084.40;1774457;80;20154;-69
2021/03/02 07:45:17;;;;;;;;;;;;;;;4.21;61.65;101080.58;1770908;80;20224;-69
2021/03/02 07:48:00;;;;;;;;;;;;;;;4.12;61.93;101074.91;1768446;80;20237;-69
2021/03/02 07:50:28;;;;;;;;;;;;;;;4.08;61.93;101081.52;1741919;80;21211;-68
2021/03/02 07:53:19;;;;;;;;;;;;;;;4.12;62.01;101069.59;1771209;80;20261;-68
2021/03/02 07:55:50;;;;;;;;;;;;;;;4.12;62.10;101074.05;1774192;80;20531;-68
2021/03/02 07:58:19;;;;;;;;;;;;;;;4.06;62.38;101074.69;1768763;80;20268;-64
2021/03/02 08:00:47;;;;;;;;;;;;;;;3.98;62.44;101079.47;1772360;78;20268;-63
2021/03/02 08:03:27;;;;;;;;;;;;;;;3.92;62.83;101076.94;1769215;80;21127;-62
2021/03/02 08:05:57;;;;;;;;;;;;;;;3.91;62.99;101073.12;1770379;80;20149;-65
2021/03/02 08:08:28;;;;;;;;;;;;;;;3.81;63.22;101081.17;1770564;80;20211;-60
2021/03/02 08:10:57;;;;;;;;;;;;;;;3.71;63.51;101074.67;1770366;80;20323;-61
2021/03/02 08:13:41;;;;;;;;;;;;;;;3.61;63.77;101077.91;1771668;80;20320;-61
2021/03/02 08:16:10;;;;;;;;;;;;;;;3.55;64.19;101082.02;1774697;80;21197;-62
2021/03/02 08:18:41;;;;;;;;;;;;;;;3.56;64.42;101073.55;1769791;80;20124;-62
2021/03/02 08:21:17;;;;;;;;;;;;;;;3.53;64.46;101079.16;1770178;80;20128;-62
2021/03/02 08:23:56;;;;;;;;;;;;;;;3.52;64.57;101079.67;1769601;80;20488;-61
2021/03/02 08:26:29;;;;;;;;;;;;;;;3.54;64.77;101075.53;1769393;80;20367;-64
2021/03/02 08:29:16;;;;;;;;;;;;;;;3.59;64.85;101073.23;1770219;80;22130;-63
2021/03/02 08:31:45;;;;;;;;;;;;;;;3.61;64.76;101088.02;1770902;79;20192;-60
2021/03/02 08:34:16;;;;;;;;;;;;;;;3.67;64.81;101078.61;1770062;80;20549;-60
2021/03/02 08:36:48;;;;;;;;;;;;;;;3.70;64.53;101080.95;1772865;80;20238;-62
2021/03/02 08:39:17;;;;;;;;;;;;;;;3.64;64.63;101082.91;1774732;80;20285;-61
2021/03/02 08:41:46;;;;;;;;;;;;;;;3.58;64.72;101079.52;1773518;78;22000;-60
2021/03/02 08:44:22;;;;;;;;;;;;;;;3.50;64.97;101078.50;1772807;80;20142;-62
2021/03/02 08:46:52;;;;;;;;;;;;;;;3.49;65.09;101078.66;1772045;78;20617;-60
2021/03/02 08:49:20;;;;;;;;;;;;;;;3.45;65.13;101080.77;1771237;80;20169;-64
2021/03/02 08:51:48;;;;;;;;;;;;;;;3.40;65.38;101080.88;1767849;80;20157;-61
2021/03/02 08:54:16;;;;;;;;;;;;;;;3.40;65.51;101068.48;1772993;80;21103;-62
2021/03/02 08:56:44;;;;;;;;;;;;;;;3.41;65.71;101070.63;1768986;80;20251;-61
2021/03/02 08:59:20;;;;;;;;;;;;;;;3.48;65.87;101074.33;1829711;77;20273;-63
2021/03/02 09:01:48;;;;;;;;;;;;;;;3.42;65.99;101072.30;1802355;79;20227;-62
2021/03/02 09:04:17;;;;;;;;;;;;;;;3.43;66.00;101069.97;1800730;79;21149;-61
2021/03/02 09:06:48;;;;;;;;;;;;;;;3.43;65.90;101066.84;1799597;79;20151;-63
2021/03/02 09:09:25;;;;;;;;;;;;;;;3.44;65.98;101068.99;1799814;79;20194;-62
2021/03/02 09:11:54;;;;;;;;;;;;;;;3.47;65.93;101061.55;1802301;79;20198;-62
2021/03/02 09:14:33;;;;;;;;;;;;;;;3.49;65.84;101064.08;1799786;79;20580;-61
2021/03/02 09:17:02;;;;;;;;;;;;;;;3.43;65.80;101054.91;1792924;79;21224;-62
2021/03/02 09:19:33;;;;;;;;;;;;;;;3.33;66.03;101058.16;1799897;79;20135;-64
2021/03/02 09:22:02;;;;;;;;;;;;;;;3.25;66.31;101043.50;1799164;79;20191;-62
2021/03/02 09:24:36;;;;;;;;;;;;;;;3.21;66.53;101047.44;1779901;79;20134;-61
2021/03/02 09:27:12;;;;;;;;;;;;;;;3.17;66.81;101057.52;1766488;80;20133;-61
2021/03/02 09:29:46;;;;;;;;;;;;;;;3.13;66.98;101054.83;1739210;80;21378;-61
2021/03/02 09:32:16;;;;;;;;;;;;;;;3.12;67.17;101053.16;1771443;80;20543;-63
2021/03/02 09:34:46;;;;;;;;;;;;;;;3.13;67.11;101053.50;1767679;80;20208;-61
2021/03/02 09:37:18;;;;;;;;;;;;;;;3.12;67.14;101059.30;1774412;80;20284;-60
2021/03/02 09:40:10;;;;;;;;;;;;;;;3.12;67.20;101060.63;1772401;80;20266;-61
2021/03/02 09:42:41;;;;;;;;;;;;;;;3.11;67.17;101066.91;1767874;80;22138;-63
2021/03/02 09:45:16;;;;;;;;;;;;;;;3.09;67.25;101070.21;1771199;80;20258;-60
2021/03/02 09:47:48;;;;;;;;;;;;;;;3.09;67.46;101060.08;1770323;80;20230;-61
2021/03/02 09:50:18;;;;;;;;;;;;;;;3.08;67.26;101044.69;1768629;80;20135;-62
2021/03/02 09:52:48;;;;;;;;;;;;;;;3.08;67.34;101044.69;1771394;80;20239;-67
2021/03/02 09:55:26;;;;;;;;;;;;;;;3.12;67.48;101052.68;1769623;80;21390;-63
2021/03/02 09:58:16;;;;;;;;;;;;;;;3.17;67.34;101048.25;1767747;80;20241;-61
2021/03/02 10:00:52;;;;;;;;;;;;;;;3.21;67.36;101042.98;1749598;80;20138;-62
2021/03/02 10:03:25;;;;;;;;;;;;;;;3.30;67.10;101040.73;1764298;80;20157;-59
2021/03/02 10:05:55;;;;;;;;;;;;;;;3.31;67.08;101032.27;1767961;80;20228;-61
2021/03/02 10:08:34;;;;;;;;;;;;;;;3.32;66.92;101024.17;1762174;80;21211;-61
2021/03/02 10:11:15;;;;;;;;;;;;;;;3.28;66.79;101025.96;1760207;80;20233;-63
2021/03/02 10:13:52;;;;;;;;;;;;;;;3.20;67.05;101017.46;1757495;80;20288;-61
2021/03/02 10:16:31;;;;;;;;;;;;;;;3.14;67.07;101022.06;1758626;80;20138;-58
2021/03/02 10:19:05;;;;;;;;;;;;;;;3.12;67.38;101007.64;1760769;80;20965;-60
2021/03/02 10:21:46;;;;;;;;;;;;;;;3.06;67.52;101015.36;1730179;80;21671;-61
2021/03/02 10:27:56;;;;;;;;;;;;;;;3.02;67.92;101008.69;1769561;80;20135;-63
2021/03/02 10:34:09;;;;;;;;;;;;;;;3.10;67.95;100998.17;1765700;80;20165;-60
2021/03/02 10:40:16;;;;;;;;;;;;;;;3.05;67.56;100990.69;1763351;80;20288;-61
2021/03/02 10:46:30;;;;;;;;;;;;;;;3.04;67.52;100981.57;1761102;80;20185;-62
2021/03/02 10:52:43;;;;;;;;;;;;;;;2.90;67.75;100984.25;1763494;80;21239;-60
2021/03/02 11:02:20;;;;;;;;;;;;;;;2.82;68.17;100967.81;1750362;80;20269;-62
2021/03/02 11:13:55;;;;;;;;;;;;;;;2.74;68.44;100963.28;1739412;82;21027;-63
2021/03/02 11:16:32;;;;;;;;;;;;;;;2.75;68.47;100958.81;1741295;81;20231;-61
2021/03/02 11:22:04;;;;;;;;;;;;;;;2.77;68.47;100957.68;1732198;81;21341;-62
2021/03/02 11:24:46;;;;;;;;;;;;;;;2.77;68.54;100943.12;1738238;81;20497;-62
2021/03/02 11:30:13;;;;;;;;;;;;;;;2.79;68.47;100924.42;1741538;80;20310;-61
2021/03/02 11:33:00;;;;;;;;;;;;;;;2.77;68.42;100911.34;1742986;82;20152;-63
2021/03/02 11:35:38;;;;;;;;;;;;;;;2.77;68.39;100922.44;1747089;82;21365;-62
2021/03/02 11:38:21;;;;;;;;;;;;;;;2.77;68.50;100913.17;1741467;82;20137;-62
2021/03/02 11:41:04;;;;;;;;;;;;;;;2.76;68.45;100914.14;1743089;82;20158;-61
2021/03/02 11:43:52;;;;;;;;;;;;;;;2.80;68.67;100908.89;1723040;81;20149;-64
2021/03/02 11:46:21;;;;;;;;;;;;;;;2.89;68.73;100899.19;1726600;81;20223;-60
2021/03/02 11:49:03;;;;;;;;;;;;;;;3.02;68.48;100893.45;1704474;82;21394;-64
2021/03/02 11:51:33;;;;;;;;;;;;;;;3.10;68.17;100883.74;1707860;83;20297;-66
2021/03/02 11:54:01;;;;;;;;;;;;;;;3.13;67.79;100874.16;1707252;82;20232;-66
2021/03/02 11:56:31;;;;;;;;;;;;;;;3.11;67.84;100875.32;1708620;83;20226;-64
2021/03/02 11:58:59;;;;;;;;;;;;;;;3.12;67.81;100875.16;1709310;83;20250;-65
2021/03/02 12:04:51;;;;;;;;;;;;;;;3.16;67.70;100870.36;1733481;81;20336;-65
2021/03/02 12:07:26;;;;;;;;;;;;;;;3.15;67.40;100851.00;1747628;81;20134;-66
2021/03/02 12:13:30;;;;;;;;;;;;;;;3.09;67.59;100852.11;1748895;81;20137;-65
2021/03/02 12:32:38;;;;;;;;;;;;;;;2.98;67.85;100806.36;1736133;81;20142;-66
2021/03/02 12:38:53;;;;;;;;;;;;;;;2.96;67.88;100817.61;1740400;81;20175;-65
2021/03/02 12:45:18;;;;;;;;;;;;;;;2.94;68.19;100798.38;1742262;81;20154;-65
2021/03/02 12:51:22;;;;;;;;;;;;;;;3.01;67.99;100790.65;1739963;82;20491;-66
2021/03/02 12:57:49;;;;;;;;;;;;;;;2.90;68.12;100802.36;1739866;82;20142;-65
2021/03/02 13:14:07;;;;;;;;;;;;;;;2.70;68.86;100774.44;1765637;80;20242;-66
2021/03/02 13:20:11;;;;;;;;;;;;;;;2.71;68.94;100770.78;1768259;80;21239;-65
2021/03/02 13:26:17;;;;;;;;;;;;;;;2.67;69.09;100768.95;1747988;82;20213;-67
2021/03/02 13:32:33;;;;;;;;;;;;;;;2.66;69.06;100756.69;1744782;82;20154;-65
2021/03/02 13:45:15;;;;;;;;;;;;;;;2.67;69.28;100737.69;1731501;82;20329;-65
2021/03/02 13:51:23;;;;;;;;;;;;;;;2.72;69.31;100739.35;1733859;80;20246;-66
2021/03/02 14:13:01;;;;;;;;;;;;;;;2.68;68.94;100712.84;1734011;82;20222;-64
2021/03/02 14:15:46;;;;;;;;;;;;;;;2.71;68.85;100709.88;1744946;82;20573;-64
2021/03/02 14:21:26;;;;;;;;;;;;;;;2.76;68.76;100726.14;1739877;82;21216;-65
2021/03/02 14:24:11;;;;;;;;;;;;;;;2.87;68.70;100731.17;1828641;77;20211;-65
2021/03/02 14:32:35;;;;;;;;;;;;;;;2.87;68.17;100723.70;1796980;79;20748;-66
2021/03/02 14:35:12;;;;;;;;;;;;;;;2.84;68.28;100727.98;1801783;79;20560;-65
2021/03/02 14:37:41;;;;;;;;;;;;;;;2.84;68.22;100731.96;1801556;79;20171;-65
2021/03/02 14:40:12;;;;;;;;;;;;;;;2.82;68.43;100718.06;1805757;78;20141;-65
2021/03/02 14:42:46;;;;;;;;;;;;;;;2.85;68.41;100725.69;1798698;79;21204;-63
2021/03/02 14:45:16;;;;;;;;;;;;;;;2.88;68.17;100731.48;1801261;79;20174;-64
2021/03/02 14:47:48;;;;;;;;;;;;;;;2.94;68.12;100730.02;1800026;79;20242;-65
2021/03/02 14:50:19;;;;;;;;;;;;;;;3.01;67.71;100731.05;1803770;79;20112;-67
2021/03/02 14:52:51;;;;;;;;;;;;;;;3.02;67.75;100732.72;1801834;79;20488;-65
2021/03/02 14:55:19;;;;;;;;;;;;;;;3.05;67.79;100727.56;1806422;79;21209;-65
2021/03/02 14:57:47;;;;;;;;;;;;;;;3.11;67.66;100721.15;1802974;79;20157;-66
2021/03/02 15:00:16;;;;;;;;;;;;;;;3.15;67.46;100726.94;1798544;79;20190;-65
2021/03/02 15:02:44;;;;;;;;;;;;;;;3.14;67.28;100719.50;1796178;79;20155;-66
2021/03/02 15:05:13;;;;;;;;;;;;;;;3.13;67.26;100712.53;1802207;78;20236;-61
2021/03/02 15:07:41;;;;;;;;;;;;;;;3.13;67.29;100711.72;1801568;79;21146;-61
2021/03/02 15:10:10;;;;;;;;;;;;;;;3.12;67.36;100707.40;1799785;79;20295;-62
2021/03/02 15:12:38;;;;;;;;;;;;;;;3.14;67.33;100712.88;1798823;79;20127;-64
2021/03/02 15:15:08;;;;;;;;;;;;;;;3.15;67.37;100713.70;1804570;79;20183;-62
2021/03/02 15:17:37;;;;;;;;;;;;;;;3.16;67.24;100700.79;1796945;79;20285;-64
2021/03/02 15:20:09;;;;;;;;;;;;;;;3.14;67.20;100713.38;1796767;79;21211;-61
2021/03/02 15:22:38;;;;;;;;;;;;;;;3.12;67.20;100707.40;1798490;79;20411;-61
2021/03/02 15:25:07;;;;;;;;;;;;;;;3.11;67.13;100717.69;1788809;79;20234;-62
2021/03/02 15:27:35;;;;;;;;;;;;;;;3.06;67.18;100715.99;1799911;79;20293;-63
2021/03/02 15:30:05;;;;;;;;;;;;;;;3.03;67.31;100718.97;1798890;79;20136;-62
2021/03/02 15:32:35;;;;;;;;;;;;;;;3.05;67.39;100719.63;1789325;79;21191;-63